The Canyons, Utah
Current Conditions -  °F | °C
As of 7:15 PM on Thursday 20 Nov 2014 (Local Time) from K36U Reporting Station
Thunderstorm Thunderstorm  
Wind Chill: 27°   Ceiling: Unl
Heat Index: 27°   Visibility: 10mi
Dew Point: 18°   Wind: 3mph
Humidity: 69%   Direction: 140°SE
Pressure: 30.04"   Gusts: NA
Location:  40.71°N, 111.53°W
Report Text: K36U 210215Z AUTO 14003KT 10SM VCTS SCT080 M03/M08 A3004 RMK AO2 LTG DSNT SE
Loading
Personal Weather Stations






























Interactive Weather Map New forecast layout! Learn more

10-Day Weather Forecast

Advertisements
Track Severe Weather on mobile